sensor_id;sensor_type;location;lat;lon;timestamp;P1;durP1;ratioP1;P2;durP2;ratioP2
42192;SDS011;52467;40.114;18.306;2023-01-23T00:01:31;6.07;;;1.38;;
42192;SDS011;52467;40.114;18.306;2023-01-23T00:03:59;6.90;;;1.52;;
42192;SDS011;52467;40.114;18.306;2023-01-23T00:06:27;9.93;;;2.00;;
42192;SDS011;52467;40.114;18.306;2023-01-23T00:08:54;5.53;;;1.75;;
42192;SDS011;52467;40.114;18.306;2023-01-23T00:11:23;9.82;;;2.00;;
42192;SDS011;52467;40.114;18.306;2023-01-23T00:13:52;4.18;;;1.75;;
42192;SDS011;52467;40.114;18.306;2023-01-23T00:16:20;4.53;;;1.40;;
42192;SDS011;52467;40.114;18.306;2023-01-23T00:18:48;7.05;;;1.23;;
42192;SDS011;52467;40.114;18.306;2023-01-23T00:21:17;5.95;;;1.27;;
42192;SDS011;52467;40.114;18.306;2023-01-23T00:23:50;4.43;;;1.13;;
42192;SDS011;52467;40.114;18.306;2023-01-23T00:26:19;7.75;;;1.10;;
42192;SDS011;52467;40.114;18.306;2023-01-23T00:28:48;7.30;;;1.08;;
42192;SDS011;52467;40.114;18.306;2023-01-23T00:31:18;8.48;;;1.02;;
42192;SDS011;52467;40.114;18.306;2023-01-23T00:33:55;4.30;;;1.02;;
42192;SDS011;52467;40.114;18.306;2023-01-23T00:36:24;5.57;;;1.23;;
42192;SDS011;52467;40.114;18.306;2023-01-23T00:38:55;3.20;;;0.80;;
42192;SDS011;52467;40.114;18.306;2023-01-23T00:41:22;2.72;;;1.17;;
42192;SDS011;52467;40.114;18.306;2023-01-23T00:43:52;3.60;;;1.05;;
42192;SDS011;52467;40.114;18.306;2023-01-23T00:46:19;4.93;;;1.15;;
42192;SDS011;52467;40.114;18.306;2023-01-23T00:48:47;3.67;;;1.10;;
42192;SDS011;52467;40.114;18.306;2023-01-23T00:51:17;3.17;;;0.80;;
42192;SDS011;52467;40.114;18.306;2023-01-23T00:53:44;5.10;;;1.10;;
42192;SDS011;52467;40.114;18.306;2023-01-23T00:56:12;2.67;;;0.82;;
42192;SDS011;52467;40.114;18.306;2023-01-23T00:58:40;3.90;;;1.20;;
42192;SDS011;52467;40.114;18.306;2023-01-23T01:01:11;5.10;;;1.40;;
42192;SDS011;52467;40.114;18.306;2023-01-23T01:03:39;4.30;;;1.63;;
42192;SDS011;52467;40.114;18.306;2023-01-23T01:06:07;6.50;;;1.33;;
42192;SDS011;52467;40.114;18.306;2023-01-23T01:08:35;5.18;;;1.20;;
42192;SDS011;52467;40.114;18.306;2023-01-23T01:11:03;5.30;;;1.48;;
42192;SDS011;52467;40.114;18.306;2023-01-23T01:13:30;2.58;;;0.98;;
42192;SDS011;52467;40.114;18.306;2023-01-23T01:15:58;5.07;;;1.17;;
42192;SDS011;52467;40.114;18.306;2023-01-23T01:18:27;3.75;;;0.98;;
42192;SDS011;52467;40.114;18.306;2023-01-23T01:20:55;3.40;;;0.90;;
42192;SDS011;52467;40.114;18.306;2023-01-23T01:23:23;5.18;;;1.40;;
42192;SDS011;52467;40.114;18.306;2023-01-23T01:25:50;4.00;;;1.00;;
42192;SDS011;52467;40.114;18.306;2023-01-23T01:28:19;6.55;;;1.20;;
42192;SDS011;52467;40.114;18.306;2023-01-23T01:30:46;2.00;;;0.70;;
42192;SDS011;52467;40.114;18.306;2023-01-23T01:33:14;5.88;;;0.80;;
42192;SDS011;52467;40.114;18.306;2023-01-23T01:35:41;4.90;;;1.25;;
42192;SDS011;52467;40.114;18.306;2023-01-23T01:38:09;2.42;;;0.90;;
42192;SDS011;52467;40.114;18.306;2023-01-23T01:40:36;4.43;;;0.80;;
42192;SDS011;52467;40.114;18.306;2023-01-23T01:43:06;5.00;;;0.82;;
42192;SDS011;52467;40.114;18.306;2023-01-23T01:48:40;3.70;;;1.02;;
42192;SDS011;52467;40.114;18.306;2023-01-23T01:51:28;4.03;;;1.15;;
42192;SDS011;52467;40.114;18.306;2023-01-23T01:56:31;5.03;;;1.05;;
42192;SDS011;52467;40.114;18.306;2023-01-23T01:59:03;3.40;;;1.00;;
42192;SDS011;52467;40.114;18.306;2023-01-23T02:01:32;4.70;;;1.02;;
42192;SDS011;52467;40.114;18.306;2023-01-23T02:04:03;6.85;;;1.08;;
42192;SDS011;52467;40.114;18.306;2023-01-23T02:06:30;7.65;;;1.00;;
42192;SDS011;52467;40.114;18.306;2023-01-23T02:11:27;5.88;;;1.30;;
42192;SDS011;52467;40.114;18.306;2023-01-23T02:13:55;7.78;;;1.20;;
42192;SDS011;52467;40.114;18.306;2023-01-23T02:16:24;12.73;;;1.88;;
42192;SDS011;52467;40.114;18.306;2023-01-23T02:19:03;9.02;;;1.20;;
42192;SDS011;52467;40.114;18.306;2023-01-23T02:21:55;4.53;;;1.30;;
42192;SDS011;52467;40.114;18.306;2023-01-23T02:24:38;5.05;;;1.27;;
42192;SDS011;52467;40.114;18.306;2023-01-23T02:27:09;4.82;;;1.10;;
42192;SDS011;52467;40.114;18.306;2023-01-23T02:29:41;3.28;;;1.20;;
42192;SDS011;52467;40.114;18.306;2023-01-23T02:32:09;6.05;;;1.55;;
42192;SDS011;52467;40.114;18.306;2023-01-23T02:34:37;7.05;;;1.30;;
42192;SDS011;52467;40.114;18.306;2023-01-23T02:37:05;8.00;;;1.30;;
42192;SDS011;52467;40.114;18.306;2023-01-23T02:39:32;11.18;;;1.38;;
42192;SDS011;52467;40.114;18.306;2023-01-23T02:42:05;7.65;;;1.27;;
42192;SDS011;52467;40.114;18.306;2023-01-23T02:44:41;5.50;;;1.10;;
42192;SDS011;52467;40.114;18.306;2023-01-23T02:47:15;8.90;;;1.40;;
42192;SDS011;52467;40.114;18.306;2023-01-23T02:49:43;7.90;;;1.00;;
42192;SDS011;52467;40.114;18.306;2023-01-23T02:52:10;5.65;;;1.00;;
42192;SDS011;52467;40.114;18.306;2023-01-23T02:54:37;9.10;;;1.05;;
42192;SDS011;52467;40.114;18.306;2023-01-23T02:57:06;9.30;;;1.70;;
42192;SDS011;52467;40.114;18.306;2023-01-23T02:59:33;2.00;;;1.10;;
42192;SDS011;52467;40.114;18.306;2023-01-23T03:02:21;4.40;;;1.20;;
42192;SDS011;52467;40.114;18.306;2023-01-23T03:04:49;5.18;;;1.17;;
42192;SDS011;52467;40.114;18.306;2023-01-23T03:07:18;3.85;;;1.02;;
42192;SDS011;52467;40.114;18.306;2023-01-23T03:09:46;4.95;;;1.10;;
42192;SDS011;52467;40.114;18.306;2023-01-23T03:12:14;3.50;;;1.10;;
42192;SDS011;52467;40.114;18.306;2023-01-23T03:14:41;8.07;;;1.50;;
42192;SDS011;52467;40.114;18.306;2023-01-23T03:17:09;5.90;;;1.30;;
42192;SDS011;52467;40.114;18.306;2023-01-23T03:19:43;4.93;;;1.10;;
42192;SDS011;52467;40.114;18.306;2023-01-23T03:22:11;2.28;;;0.90;;
42192;SDS011;52467;40.114;18.306;2023-01-23T03:24:38;4.15;;;0.82;;
42192;SDS011;52467;40.114;18.306;2023-01-23T03:27:06;3.15;;;0.90;;
42192;SDS011;52467;40.114;18.306;2023-01-23T03:29:39;3.25;;;0.90;;
42192;SDS011;52467;40.114;18.306;2023-01-23T03:32:25;3.70;;;0.70;;
42192;SDS011;52467;40.114;18.306;2023-01-23T03:34:55;4.35;;;1.10;;
42192;SDS011;52467;40.114;18.306;2023-01-23T03:37:23;3.75;;;0.85;;
42192;SDS011;52467;40.114;18.306;2023-01-23T03:39:50;6.32;;;0.80;;
42192;SDS011;52467;40.114;18.306;2023-01-23T03:42:36;5.23;;;0.77;;
42192;SDS011;52467;40.114;18.306;2023-01-23T03:45:07;4.00;;;1.00;;
42192;SDS011;52467;40.114;18.306;2023-01-23T03:47:35;5.25;;;1.13;;
42192;SDS011;52467;40.114;18.306;2023-01-23T03:50:02;7.60;;;1.00;;
42192;SDS011;52467;40.114;18.306;2023-01-23T03:52:37;5.90;;;0.90;;
42192;SDS011;52467;40.114;18.306;2023-01-23T03:55:05;3.80;;;0.70;;
42192;SDS011;52467;40.114;18.306;2023-01-23T03:57:34;1.63;;;0.80;;
42192;SDS011;52467;40.114;18.306;2023-01-23T04:00:08;7.75;;;1.13;;
42192;SDS011;52467;40.114;18.306;2023-01-23T04:03:02;4.22;;;1.08;;
42192;SDS011;52467;40.114;18.306;2023-01-23T04:05:30;4.15;;;1.00;;
42192;SDS011;52467;40.114;18.306;2023-01-23T04:07:59;3.90;;;0.88;;
42192;SDS011;52467;40.114;18.306;2023-01-23T04:10:26;3.45;;;0.73;;
42192;SDS011;52467;40.114;18.306;2023-01-23T04:13:01;7.10;;;1.20;;
42192;SDS011;52467;40.114;18.306;2023-01-23T04:15:31;5.60;;;0.98;;
42192;SDS011;52467;40.114;18.306;2023-01-23T04:18:00;3.15;;;0.80;;
42192;SDS011;52467;40.114;18.306;2023-01-23T04:20:28;4.88;;;0.73;;
42192;SDS011;52467;40.114;18.306;2023-01-23T04:22:56;4.90;;;0.90;;
42192;SDS011;52467;40.114;18.306;2023-01-23T04:25:26;4.63;;;0.90;;
42192;SDS011;52467;40.114;18.306;2023-01-23T04:27:55;3.50;;;0.90;;
42192;SDS011;52467;40.114;18.306;2023-01-23T04:30:22;2.83;;;1.00;;
42192;SDS011;52467;40.114;18.306;2023-01-23T04:32:50;2.13;;;0.82;;
42192;SDS011;52467;40.114;18.306;2023-01-23T04:35:18;4.55;;;0.80;;
42192;SDS011;52467;40.114;18.306;2023-01-23T04:37:46;6.20;;;0.87;;
42192;SDS011;52467;40.114;18.306;2023-01-23T04:40:13;3.95;;;0.68;;
42192;SDS011;52467;40.114;18.306;2023-01-23T04:42:52;4.97;;;0.93;;
42192;SDS011;52467;40.114;18.306;2023-01-23T04:45:28;4.03;;;0.82;;
42192;SDS011;52467;40.114;18.306;2023-01-23T04:48:05;3.20;;;0.93;;
42192;SDS011;52467;40.114;18.306;2023-01-23T04:50:35;2.15;;;0.90;;
42192;SDS011;52467;40.114;18.306;2023-01-23T04:53:03;5.22;;;0.77;;
42192;SDS011;52467;40.114;18.306;2023-01-23T04:55:32;3.80;;;0.90;;
42192;SDS011;52467;40.114;18.306;2023-01-23T04:58:02;4.28;;;1.02;;
42192;SDS011;52467;40.114;18.306;2023-01-23T05:00:30;5.80;;;1.10;;
42192;SDS011;52467;40.114;18.306;2023-01-23T05:02:59;4.53;;;1.10;;
42192;SDS011;52467;40.114;18.306;2023-01-23T05:05:30;5.03;;;0.80;;
42192;SDS011;52467;40.114;18.306;2023-01-23T05:08:00;6.47;;;1.10;;
42192;SDS011;52467;40.114;18.306;2023-01-23T05:10:28;5.07;;;0.90;;
42192;SDS011;52467;40.114;18.306;2023-01-23T05:13:02;4.50;;;1.33;;
42192;SDS011;52467;40.114;18.306;2023-01-23T05:15:29;3.13;;;1.30;;
42192;SDS011;52467;40.114;18.306;2023-01-23T05:17:57;2.13;;;0.80;;
42192;SDS011;52467;40.114;18.306;2023-01-23T05:20:25;2.70;;;0.90;;
42192;SDS011;52467;40.114;18.306;2023-01-23T05:22:57;7.68;;;1.00;;
42192;SDS011;52467;40.114;18.306;2023-01-23T05:25:48;4.28;;;1.20;;
42192;SDS011;52467;40.114;18.306;2023-01-23T05:28:15;4.70;;;0.90;;
42192;SDS011;52467;40.114;18.306;2023-01-23T05:30:47;4.78;;;1.00;;
42192;SDS011;52467;40.114;18.306;2023-01-23T05:33:25;4.47;;;0.80;;
42192;SDS011;52467;40.114;18.306;2023-01-23T05:35:57;2.78;;;0.98;;
42192;SDS011;52467;40.114;18.306;2023-01-23T05:38:25;3.15;;;0.80;;
42192;SDS011;52467;40.114;18.306;2023-01-23T05:40:53;9.18;;;1.30;;
42192;SDS011;52467;40.114;18.306;2023-01-23T05:43:52;3.65;;;1.30;;
42192;SDS011;52467;40.114;18.306;2023-01-23T05:46:20;4.60;;;1.05;;
42192;SDS011;52467;40.114;18.306;2023-01-23T05:48:50;3.13;;;1.05;;
42192;SDS011;52467;40.114;18.306;2023-01-23T05:51:19;3.40;;;1.10;;
42192;SDS011;52467;40.114;18.306;2023-01-23T05:53:50;4.82;;;1.20;;
42192;SDS011;52467;40.114;18.306;2023-01-23T05:56:17;4.87;;;1.13;;
42192;SDS011;52467;40.114;18.306;2023-01-23T05:59:09;4.40;;;1.17;;
42192;SDS011;52467;40.114;18.306;2023-01-23T06:01:42;3.15;;;1.50;;
42192;SDS011;52467;40.114;18.306;2023-01-23T06:04:41;4.70;;;1.80;;
42192;SDS011;52467;40.114;18.306;2023-01-23T06:07:22;7.20;;;2.50;;
42192;SDS011;52467;40.114;18.306;2023-01-23T06:09:54;9.77;;;2.90;;
42192;SDS011;52467;40.114;18.306;2023-01-23T06:12:22;10.57;;;3.42;;
42192;SDS011;52467;40.114;18.306;2023-01-23T06:14:49;12.57;;;3.60;;
42192;SDS011;52467;40.114;18.306;2023-01-23T06:17:17;9.40;;;3.10;;
42192;SDS011;52467;40.114;18.306;2023-01-23T06:19:44;12.27;;;3.25;;
42192;SDS011;52467;40.114;18.306;2023-01-23T06:22:15;12.33;;;3.30;;
42192;SDS011;52467;40.114;18.306;2023-01-23T06:25:01;9.20;;;2.65;;
42192;SDS011;52467;40.114;18.306;2023-01-23T06:27:30;5.07;;;2.15;;
42192;SDS011;52467;40.114;18.306;2023-01-23T06:30:01;7.03;;;2.00;;
42192;SDS011;52467;40.114;18.306;2023-01-23T06:32:32;8.55;;;1.98;;
42192;SDS011;52467;40.114;18.306;2023-01-23T06:35:00;11.53;;;2.33;;
42192;SDS011;52467;40.114;18.306;2023-01-23T06:37:32;6.43;;;2.20;;
42192;SDS011;52467;40.114;18.306;2023-01-23T06:40:00;5.38;;;1.90;;
42192;SDS011;52467;40.114;18.306;2023-01-23T06:42:28;10.52;;;2.00;;
42192;SDS011;52467;40.114;18.306;2023-01-23T06:44:57;12.18;;;2.05;;
42192;SDS011;52467;40.114;18.306;2023-01-23T06:47:28;7.97;;;2.23;;
42192;SDS011;52467;40.114;18.306;2023-01-23T06:49:58;5.35;;;1.80;;
42192;SDS011;52467;40.114;18.306;2023-01-23T06:52:29;6.05;;;1.90;;
42192;SDS011;52467;40.114;18.306;2023-01-23T06:54:57;6.75;;;1.75;;
42192;SDS011;52467;40.114;18.306;2023-01-23T06:57:25;7.97;;;1.50;;
42192;SDS011;52467;40.114;18.306;2023-01-23T06:59:53;5.82;;;1.50;;
42192;SDS011;52467;40.114;18.306;2023-01-23T07:02:20;6.95;;;1.83;;
42192;SDS011;52467;40.114;18.306;2023-01-23T07:04:49;7.55;;;1.90;;
42192;SDS011;52467;40.114;18.306;2023-01-23T07:07:17;8.40;;;2.63;;
42192;SDS011;52467;40.114;18.306;2023-01-23T07:09:47;9.73;;;2.30;;
42192;SDS011;52467;40.114;18.306;2023-01-23T07:12:18;7.30;;;2.10;;
42192;SDS011;52467;40.114;18.306;2023-01-23T07:14:45;5.17;;;1.50;;
42192;SDS011;52467;40.114;18.306;2023-01-23T07:17:18;6.70;;;1.60;;
42192;SDS011;52467;40.114;18.306;2023-01-23T07:19:45;7.30;;;1.20;;
42192;SDS011;52467;40.114;18.306;2023-01-23T07:22:16;7.15;;;1.13;;
42192;SDS011;52467;40.114;18.306;2023-01-23T07:24:44;6.70;;;1.10;;
42192;SDS011;52467;40.114;18.306;2023-01-23T07:27:12;3.20;;;1.00;;
42192;SDS011;52467;40.114;18.306;2023-01-23T07:29:40;4.90;;;0.98;;
42192;SDS011;52467;40.114;18.306;2023-01-23T07:32:08;6.95;;;1.50;;
42192;SDS011;52467;40.114;18.306;2023-01-23T07:34:36;5.38;;;1.38;;
42192;SDS011;52467;40.114;18.306;2023-01-23T07:37:04;3.28;;;1.38;;
42192;SDS011;52467;40.114;18.306;2023-01-23T07:39:31;5.35;;;1.38;;
42192;SDS011;52467;40.114;18.306;2023-01-23T07:41:59;6.80;;;1.10;;
42192;SDS011;52467;40.114;18.306;2023-01-23T07:44:27;4.43;;;0.93;;
42192;SDS011;52467;40.114;18.306;2023-01-23T07:46:55;6.68;;;1.35;;
42192;SDS011;52467;40.114;18.306;2023-01-23T07:49:22;5.30;;;1.00;;
42192;SDS011;52467;40.114;18.306;2023-01-23T07:51:50;3.40;;;1.10;;
42192;SDS011;52467;40.114;18.306;2023-01-23T07:54:25;6.93;;;1.45;;
42192;SDS011;52467;40.114;18.306;2023-01-23T07:56:53;9.13;;;1.55;;
42192;SDS011;52467;40.114;18.306;2023-01-23T07:59:20;2.70;;;1.10;;
42192;SDS011;52467;40.114;18.306;2023-01-23T08:01:48;7.10;;;1.73;;
42192;SDS011;52467;40.114;18.306;2023-01-23T08:04:18;6.13;;;1.38;;
42192;SDS011;52467;40.114;18.306;2023-01-23T08:06:46;3.65;;;1.50;;
42192;SDS011;52467;40.114;18.306;2023-01-23T08:09:13;9.53;;;1.40;;
42192;SDS011;52467;40.114;18.306;2023-01-23T08:11:40;4.65;;;1.20;;
42192;SDS011;52467;40.114;18.306;2023-01-23T08:14:07;5.93;;;1.70;;
42192;SDS011;52467;40.114;18.306;2023-01-23T08:16:35;4.70;;;1.38;;
42192;SDS011;52467;40.114;18.306;2023-01-23T08:19:06;4.03;;;0.93;;
42192;SDS011;52467;40.114;18.306;2023-01-23T08:21:34;4.82;;;1.40;;
42192;SDS011;52467;40.114;18.306;2023-01-23T08:24:21;4.18;;;1.13;;
42192;SDS011;52467;40.114;18.306;2023-01-23T08:26:49;5.35;;;1.20;;
42192;SDS011;52467;40.114;18.306;2023-01-23T08:29:16;5.35;;;1.00;;
42192;SDS011;52467;40.114;18.306;2023-01-23T08:31:43;4.28;;;0.90;;
42192;SDS011;52467;40.114;18.306;2023-01-23T08:34:10;3.35;;;0.90;;
42192;SDS011;52467;40.114;18.306;2023-01-23T08:36:38;5.40;;;0.70;;
42192;SDS011;52467;40.114;18.306;2023-01-23T08:39:05;6.47;;;0.70;;
42192;SDS011;52467;40.114;18.306;2023-01-23T08:41:33;2.58;;;0.60;;
42192;SDS011;52467;40.114;18.306;2023-01-23T08:44:00;1.77;;;0.57;;
42192;SDS011;52467;40.114;18.306;2023-01-23T08:46:27;5.83;;;1.10;;
42192;SDS011;52467;40.114;18.306;2023-01-23T08:48:55;5.03;;;0.98;;
42192;SDS011;52467;40.114;18.306;2023-01-23T08:51:22;1.05;;;0.55;;
42192;SDS011;52467;40.114;18.306;2023-01-23T08:53:52;2.33;;;0.60;;
42192;SDS011;52467;40.114;18.306;2023-01-23T08:56:20;6.03;;;0.80;;
42192;SDS011;52467;40.114;18.306;2023-01-23T08:58:48;3.77;;;0.53;;
42192;SDS011;52467;40.114;18.306;2023-01-23T09:01:19;3.60;;;0.63;;
42192;SDS011;52467;40.114;18.306;2023-01-23T09:03:48;7.03;;;0.85;;
42192;SDS011;52467;40.114;18.306;2023-01-23T09:06:17;4.00;;;0.70;;
42192;SDS011;52467;40.114;18.306;2023-01-23T09:08:46;2.20;;;0.70;;
42192;SDS011;52467;40.114;18.306;2023-01-23T09:11:13;4.43;;;0.60;;
42192;SDS011;52467;40.114;18.306;2023-01-23T09:13:41;3.27;;;0.53;;
42192;SDS011;52467;40.114;18.306;2023-01-23T09:16:09;2.45;;;0.65;;
42192;SDS011;52467;40.114;18.306;2023-01-23T09:18:36;2.55;;;0.90;;
42192;SDS011;52467;40.114;18.306;2023-01-23T09:21:04;3.30;;;0.60;;
42192;SDS011;52467;40.114;18.306;2023-01-23T09:23:34;2.08;;;0.80;;
42192;SDS011;52467;40.114;18.306;2023-01-23T09:26:11;1.13;;;0.60;;
42192;SDS011;52467;40.114;18.306;2023-01-23T09:28:40;3.97;;;0.70;;
42192;SDS011;52467;40.114;18.306;2023-01-23T09:31:09;2.90;;;0.90;;
42192;SDS011;52467;40.114;18.306;2023-01-23T09:33:38;2.00;;;0.60;;
42192;SDS011;52467;40.114;18.306;2023-01-23T09:36:06;4.53;;;0.70;;
42192;SDS011;52467;40.114;18.306;2023-01-23T09:38:34;1.73;;;0.80;;
42192;SDS011;52467;40.114;18.306;2023-01-23T09:41:09;2.85;;;0.80;;
42192;SDS011;52467;40.114;18.306;2023-01-23T09:47:03;4.77;;;0.80;;
42192;SDS011;52467;40.114;18.306;2023-01-23T09:52:41;2.38;;;0.70;;
42192;SDS011;52467;40.114;18.306;2023-01-23T09:55:21;3.45;;;0.70;;
42192;SDS011;52467;40.114;18.306;2023-01-23T09:57:56;1.27;;;0.80;;
42192;SDS011;52467;40.114;18.306;2023-01-23T10:00:26;2.20;;;0.90;;
42192;SDS011;52467;40.114;18.306;2023-01-23T10:03:09;1.60;;;0.70;;
42192;SDS011;52467;40.114;18.306;2023-01-23T10:22:08;2.28;;;0.60;;
42192;SDS011;52467;40.114;18.306;2023-01-23T10:24:59;1.38;;;0.70;;
42192;SDS011;52467;40.114;18.306;2023-01-23T10:27:49;3.20;;;0.82;;
42192;SDS011;52467;40.114;18.306;2023-01-23T10:35:49;3.53;;;0.70;;
42192;SDS011;52467;40.114;18.306;2023-01-23T10:38:26;6.25;;;0.93;;
42192;SDS011;52467;40.114;18.306;2023-01-23T10:41:07;3.57;;;0.70;;
42192;SDS011;52467;40.114;18.306;2023-01-23T10:43:44;3.65;;;0.80;;
42192;SDS011;52467;40.114;18.306;2023-01-23T10:46:16;1.73;;;0.77;;
42192;SDS011;52467;40.114;18.306;2023-01-23T10:48:49;1.77;;;0.60;;
42192;SDS011;52467;40.114;18.306;2023-01-23T10:51:27;2.30;;;0.88;;
42192;SDS011;52467;40.114;18.306;2023-01-23T10:54:05;4.22;;;1.17;;
42192;SDS011;52467;40.114;18.306;2023-01-23T10:56:36;5.65;;;1.13;;
42192;SDS011;52467;40.114;18.306;2023-01-23T10:59:15;3.72;;;0.80;;
42192;SDS011;52467;40.114;18.306;2023-01-23T11:02:25;2.50;;;0.60;;
42192;SDS011;52467;40.114;18.306;2023-01-23T11:04:47;2.15;;;0.70;;
42192;SDS011;52467;40.114;18.306;2023-01-23T11:07:18;4.32;;;0.80;;
42192;SDS011;52467;40.114;18.306;2023-01-23T11:12:31;3.57;;;1.40;;
42192;SDS011;52467;40.114;18.306;2023-01-23T11:15:10;5.90;;;1.30;;
42192;SDS011;52467;40.114;18.306;2023-01-23T11:17:51;4.83;;;0.90;;
42192;SDS011;52467;40.114;18.306;2023-01-23T11:20:35;3.88;;;1.30;;
42192;SDS011;52467;40.114;18.306;2023-01-23T11:23:14;6.22;;;1.25;;
42192;SDS011;52467;40.114;18.306;2023-01-23T11:28:17;2.40;;;0.80;;
42192;SDS011;52467;40.114;18.306;2023-01-23T11:31:28;3.08;;;1.10;;
42192;SDS011;52467;40.114;18.306;2023-01-23T11:36:24;4.70;;;1.00;;
42192;SDS011;52467;40.114;18.306;2023-01-23T11:38:57;3.35;;;1.10;;
42192;SDS011;52467;40.114;18.306;2023-01-23T11:41:29;5.88;;;1.00;;
42192;SDS011;52467;40.114;18.306;2023-01-23T11:44:00;5.35;;;1.00;;
42192;SDS011;52467;40.114;18.306;2023-01-23T11:49:38;2.90;;;0.73;;
42192;SDS011;52467;40.114;18.306;2023-01-23T11:52:55;1.55;;;0.50;;
42192;SDS011;52467;40.114;18.306;2023-01-23T11:58:13;1.80;;;0.80;;
42192;SDS011;52467;40.114;18.306;2023-01-23T12:01:03;2.00;;;0.77;;
42192;SDS011;52467;40.114;18.306;2023-01-23T12:11:32;1.77;;;0.50;;
42192;SDS011;52467;40.114;18.306;2023-01-23T12:38:27;3.30;;;0.90;;
42192;SDS011;52467;40.114;18.306;2023-01-23T12:43:32;2.80;;;1.00;;
42192;SDS011;52467;40.114;18.306;2023-01-23T12:46:30;3.97;;;1.35;;
42192;SDS011;52467;40.114;18.306;2023-01-23T12:49:08;2.13;;;1.17;;
42192;SDS011;52467;40.114;18.306;2023-01-23T12:52:02;2.55;;;1.00;;
42192;SDS011;52467;40.114;18.306;2023-01-23T12:54:38;4.70;;;0.80;;
42192;SDS011;52467;40.114;18.306;2023-01-23T12:57:12;3.30;;;0.93;;
42192;SDS011;52467;40.114;18.306;2023-01-23T13:00:07;4.60;;;0.98;;
42192;SDS011;52467;40.114;18.306;2023-01-23T13:05:39;1.93;;;0.70;;
42192;SDS011;52467;40.114;18.306;2023-01-23T13:10:55;4.53;;;1.00;;
42192;SDS011;52467;40.114;18.306;2023-01-23T13:13:46;4.63;;;1.02;;
42192;SDS011;52467;40.114;18.306;2023-01-23T13:16:14;5.77;;;1.50;;
42192;SDS011;52467;40.114;18.306;2023-01-23T13:22:42;4.53;;;1.30;;
42192;SDS011;52467;40.114;18.306;2023-01-23T13:27:41;4.00;;;0.57;;
42192;SDS011;52467;40.114;18.306;2023-01-23T13:32:58;3.45;;;0.85;;
42192;SDS011;52467;40.114;18.306;2023-01-23T13:52:36;4.10;;;0.77;;
42192;SDS011;52467;40.114;18.306;2023-01-23T13:55:41;2.45;;;0.70;;
42192;SDS011;52467;40.114;18.306;2023-01-23T13:58:42;1.45;;;0.80;;
42192;SDS011;52467;40.114;18.306;2023-01-23T14:01:23;2.60;;;0.70;;
42192;SDS011;52467;40.114;18.306;2023-01-23T14:04:25;4.28;;;1.20;;
42192;SDS011;52467;40.114;18.306;2023-01-23T14:07:26;1.83;;;0.80;;
42192;SDS011;52467;40.114;18.306;2023-01-23T14:10:32;4.25;;;1.05;;
42192;SDS011;52467;40.114;18.306;2023-01-23T14:13:18;2.50;;;0.80;;
42192;SDS011;52467;40.114;18.306;2023-01-23T14:16:05;2.42;;;0.90;;
42192;SDS011;52467;40.114;18.306;2023-01-23T14:18:54;3.13;;;1.30;;
42192;SDS011;52467;40.114;18.306;2023-01-23T14:21:45;4.72;;;1.40;;
42192;SDS011;52467;40.114;18.306;2023-01-23T14:27:16;3.15;;;1.30;;
42192;SDS011;52467;40.114;18.306;2023-01-23T14:29:59;4.45;;;1.77;;
42192;SDS011;52467;40.114;18.306;2023-01-23T14:32:40;5.22;;;1.65;;
42192;SDS011;52467;40.114;18.306;2023-01-23T14:37:55;2.95;;;1.00;;
42192;SDS011;52467;40.114;18.306;2023-01-23T14:40:28;3.53;;;1.30;;
42192;SDS011;52467;40.114;18.306;2023-01-23T14:43:06;2.92;;;0.70;;
42192;SDS011;52467;40.114;18.306;2023-01-23T14:45:34;9.93;;;1.38;;
42192;SDS011;52467;40.114;18.306;2023-01-23T14:48:05;8.02;;;1.70;;
42192;SDS011;52467;40.114;18.306;2023-01-23T14:50:33;4.47;;;1.60;;
42192;SDS011;52467;40.114;18.306;2023-01-23T14:53:02;4.97;;;1.30;;
42192;SDS011;52467;40.114;18.306;2023-01-23T14:55:33;3.50;;;1.13;;
42192;SDS011;52467;40.114;18.306;2023-01-23T14:58:02;4.18;;;1.30;;
42192;SDS011;52467;40.114;18.306;2023-01-23T15:00:30;5.63;;;1.73;;
42192;SDS011;52467;40.114;18.306;2023-01-23T15:02:58;5.28;;;1.73;;
42192;SDS011;52467;40.114;18.306;2023-01-23T15:05:28;5.68;;;1.85;;
42192;SDS011;52467;40.114;18.306;2023-01-23T15:08:00;4.75;;;1.75;;
42192;SDS011;52467;40.114;18.306;2023-01-23T15:13:29;6.28;;;2.05;;
42192;SDS011;52467;40.114;18.306;2023-01-23T15:16:03;5.82;;;1.70;;
42192;SDS011;52467;40.114;18.306;2023-01-23T15:18:33;5.63;;;1.48;;
42192;SDS011;52467;40.114;18.306;2023-01-23T15:21:02;6.90;;;1.88;;
42192;SDS011;52467;40.114;18.306;2023-01-23T15:23:35;6.35;;;2.42;;
42192;SDS011;52467;40.114;18.306;2023-01-23T15:26:23;6.93;;;2.25;;
42192;SDS011;52467;40.114;18.306;2023-01-23T15:28:57;7.43;;;2.40;;
42192;SDS011;52467;40.114;18.306;2023-01-23T15:34:14;5.22;;;3.40;;
42192;SDS011;52467;40.114;18.306;2023-01-23T15:41:58;9.55;;;4.00;;
42192;SDS011;52467;40.114;18.306;2023-01-23T15:44:28;6.28;;;3.47;;
42192;SDS011;52467;40.114;18.306;2023-01-23T15:46:57;9.32;;;3.38;;
42192;SDS011;52467;40.114;18.306;2023-01-23T15:49:29;9.60;;;3.60;;
42192;SDS011;52467;40.114;18.306;2023-01-23T15:51:59;8.80;;;3.88;;
42192;SDS011;52467;40.114;18.306;2023-01-23T15:54:31;10.82;;;4.75;;
42192;SDS011;52467;40.114;18.306;2023-01-23T15:56:59;10.03;;;4.97;;
42192;SDS011;52467;40.114;18.306;2023-01-23T15:59:35;15.75;;;5.20;;
42192;SDS011;52467;40.114;18.306;2023-01-23T16:02:03;14.37;;;4.83;;
42192;SDS011;52467;40.114;18.306;2023-01-23T16:04:44;14.00;;;6.23;;
42192;SDS011;52467;40.114;18.306;2023-01-23T16:07:54;12.87;;;5.17;;
42192;SDS011;52467;40.114;18.306;2023-01-23T16:10:03;8.25;;;4.28;;
42192;SDS011;52467;40.114;18.306;2023-01-23T16:12:36;8.73;;;4.50;;
42192;SDS011;52467;40.114;18.306;2023-01-23T16:15:34;11.35;;;4.38;;
42192;SDS011;52467;40.114;18.306;2023-01-23T16:18:05;8.48;;;4.40;;
42192;SDS011;52467;40.114;18.306;2023-01-23T16:20:33;9.88;;;4.55;;
42192;SDS011;52467;40.114;18.306;2023-01-23T16:23:09;9.15;;;5.25;;
42192;SDS011;52467;40.114;18.306;2023-01-23T16:25:41;11.85;;;5.38;;
42192;SDS011;52467;40.114;18.306;2023-01-23T16:28:14;12.52;;;5.88;;
42192;SDS011;52467;40.114;18.306;2023-01-23T16:30:44;16.23;;;5.80;;
42192;SDS011;52467;40.114;18.306;2023-01-23T16:33:12;13.63;;;5.53;;
42192;SDS011;52467;40.114;18.306;2023-01-23T16:35:41;13.25;;;6.25;;
42192;SDS011;52467;40.114;18.306;2023-01-23T16:38:22;16.42;;;7.85;;
42192;SDS011;52467;40.114;18.306;2023-01-23T16:40:51;16.67;;;8.10;;
42192;SDS011;52467;40.114;18.306;2023-01-23T16:43:19;17.73;;;9.50;;
42192;SDS011;52467;40.114;18.306;2023-01-23T16:45:47;14.88;;;8.52;;
42192;SDS011;52467;40.114;18.306;2023-01-23T16:48:14;17.03;;;8.83;;
42192;SDS011;52467;40.114;18.306;2023-01-23T16:50:52;17.77;;;9.10;;
42192;SDS011;52467;40.114;18.306;2023-01-23T16:53:30;20.63;;;9.95;;
42192;SDS011;52467;40.114;18.306;2023-01-23T16:56:00;19.63;;;9.63;;
42192;SDS011;52467;40.114;18.306;2023-01-23T16:58:30;17.52;;;10.73;;
42192;SDS011;52467;40.114;18.306;2023-01-23T17:01:01;23.80;;;12.45;;
42192;SDS011;52467;40.114;18.306;2023-01-23T17:03:31;17.20;;;10.70;;
42192;SDS011;52467;40.114;18.306;2023-01-23T17:06:00;21.10;;;10.40;;
42192;SDS011;52467;40.114;18.306;2023-01-23T17:08:27;22.40;;;11.75;;
42192;SDS011;52467;40.114;18.306;2023-01-23T17:10:57;26.67;;;14.23;;
42192;SDS011;52467;40.114;18.306;2023-01-23T17:13:35;25.83;;;14.20;;
42192;SDS011;52467;40.114;18.306;2023-01-23T17:16:02;22.17;;;13.32;;
42192;SDS011;52467;40.114;18.306;2023-01-23T17:18:40;23.15;;;12.60;;